• Join FlightAware (Why Join?)
  • Login
  • US Flag 
Trick or treat! (Boo!!) 
06:52AM EDT


 

Airport Tracker/Info


-or-


 

Live Flight TrackerFlight Track Log ✈ ASQ5738 ✈ 29 de Apr de 2013 ✈ KIAD - KCHS

Flight Track Log - Related Links

Times and Time Zones

All times are in EDT time to prevent confusion due to time zone crossing. See the ASQ5738 flight status page for this flight to view local times or setup timezone preferences in your user account.

Time Position Orientation Groundspeed Altitude Reporting Facility
EDT Latitude Longitude Course Direction KTS MPH feet Rate Location/Type
12:20PM 38.9667 -77.5333 123° Southeast 217 250 1,600  Level Potomac TRACON
12:21PM 39.0333 -77.5833 330° Northwest 282 325 4,900 2,820 Climbing Potomac TRACON
12:22PM 38.6852 -77.5810 128° Southeast  Level Estimated
12:22PM 39.1000 -77.5667 11° North 296 341 7,300  Level Potomac TRACON
12:23PM 38.5978 -77.6212 123° Southeast  Level Estimated
12:23PM 39.1333 -77.4833 63° Northeast 286 329 9,700  Level Potomac TRACON
12:24PM 38.5103 -77.6613 128° Southeast  Level Estimated
12:24PM 39.1500 -77.3833 78° East 319 367 9,900  Level Potomac TRACON
12:25PM 38.4229 -77.7012 123° Southeast  Level Estimated
12:25PM 39.1333 -77.2667 100° East 351 404 10,000  Level Potomac TRACON
12:26PM 39.1000 -77.1500 110° East 367 422 11,000 1,500 Climbing Potomac TRACON
12:27PM 39.0333 -77.0333 126° Southeast 367 422 13,000 2,040 Climbing Potomac TRACON
12:28PM 38.9500 -76.9833 155° Southeast 354 407 15,100 1,560 Climbing Potomac TRACON
12:29PM 38.7939 -76.8808 153° Southeast 405 466 17,400 1,140 Climbing Washington Center
12:30PM 38.7008 -76.8206 153° Southeast 381 438 18,300 960 Climbing Washington Center
12:31PM 38.6075 -76.7606 153° Southeast 376 433 19,400 1,080 Climbing Washington Center
12:32PM 38.5056 -76.7244 165° South 376 433 20,500 1,080 Climbing Washington Center
12:33PM 38.3994 -76.7069 173° South 381 438 21,600 1,080 Climbing Washington Center
12:34PM 38.2933 -76.6897 173° South 387 445 22,700 1,080 Climbing Washington Center
12:35PM 38.1914 -76.6750 174° South 387 445 23,800 1,080 Climbing Washington Center
12:36PM 38.0850 -76.6628 175° South 387 445 24,900 1,080 Climbing Washington Center
12:37PM 37.9808 -76.6481 174° South 387 445 26,000 1,080 Climbing Washington Center
12:38PM 37.8786 -76.6572 184° South 381 438 27,100 900 Climbing Washington Center
12:39PM 37.7783 -76.6689 185° South 376 433 27,900 360 Climbing Washington Center
12:40PM 37.6781 -76.6808 185° South 371 427 27,900  Level Washington Center
12:41PM 37.5736 -76.6950 186° South 371 427 27,900  Level Washington Center
12:42PM 37.4694 -76.7092 186° South 371 427 27,900  Level Washington Center
12:43PM 37.3647 -76.7442 195° South 376 433 27,900  Level Washington Center
12:44PM 37.2747 -76.7819 198° South 376 433 27,900  Level Washington Center
12:45PM 37.1719 -76.8247 198° South 381 438 27,900  Level Washington Center
12:46PM 37.0714 -76.8675 199° South 388 447 27,900  Level Washington Center
12:47PM 36.9708 -76.9100 199° South 388 447 27,900  Level Washington Center
12:48PM 36.8703 -76.9522 199° South 388 447 27,900  Level Washington Center
12:49PM 36.7675 -76.9947 198° South 388 447 27,900  Level Washington Center
12:50PM 36.6689 -77.0342 198° South 388 447 27,900  Level Washington Center
12:51PM 36.5706 -77.0739 198° South 388 447 27,900  Level Washington Center
12:52PM 36.4678 -77.1183 199° South 388 447 27,900  Level Washington Center
12:53PM 36.3669 -77.1603 199° South 388 447 27,900  Level Washington Center
12:54PM 36.2536 -77.2069 198° South 388 447 27,900  Level Washington Center
12:55PM 36.1550 -77.2436 197° South 388 447 27,900  Level Washington Center
12:56PM 36.0522 -77.2850 198° South 381 438 27,900  Level Washington Center
12:57PM 35.9514 -77.3292 200° South 386 444 27,900  Level Washington Center
12:58PM 35.8486 -77.3706 198° South 386 444 27,900  Level Washington Center
12:59PM 35.7600 -77.4400 212° Southwest 381 438 27,900  Level Washington Center
01:00PM 35.6711 -77.5147 214° Southwest 381 438 27,900  Level Washington Center
01:01PM 35.5844 -77.5892 215° Southwest 387 445 27,900  Level Washington Center
01:02PM 35.4978 -77.6611 214° Southwest 387 445 27,900  Level Washington Center
01:03PM 35.4086 -77.7353 214° Southwest 387 445 27,900  Level Washington Center
01:04PM 35.3325 -77.7994 215° Southwest 387 445 27,900  Level Washington Center
01:05PM 35.2433 -77.8708 213° Southwest 387 445 27,900  Level Washington Center
01:06PM 35.1564 -77.9444 215° Southwest 387 445 27,900  Level Washington Center
01:07PM 35.0672 -78.0206 215° Southwest 387 445 27,900  Level Washington Center
01:08PM 34.9822 -78.0942 215° Southwest 387 445 27,900  Level Washington Center
01:09PM 34.8933 -78.1647 213° Southwest 387 445 27,900  Level Washington Center
01:10PM 34.8017 -78.2478 217° Southwest 387 445 27,900  Level Washington Center
01:11PM 34.7103 -78.3206 213° Southwest 387 445 27,900  Level Washington Center
01:13PM 34.5875 -78.4239 215° Southwest 388 447 27,900  Level Jacksonville Center
01:14PM 34.4822 -78.5125 215° Southwest 388 447 27,900  Level Jacksonville Center
01:15PM 34.3928 -78.5822 213° Southwest 388 447 27,900 -120 Level Jacksonville Center
01:16PM 34.3017 -78.6597 215° Southwest 393 452 27,700 -600 Descending Jacksonville Center
01:17PM 34.2211 -78.7489 222° Southwest 398 458 26,700 -1,080 Descending Jacksonville Center
01:18PM 34.1325 -78.8486 223° Southwest 419 482 25,600 -1,080 Descending Jacksonville Center
01:19PM 34.0431 -78.9253 215° Southwest 424 488 24,600 -960 Descending Jacksonville Center
01:20PM 33.9539 -79.0044 216° Southwest 417 480 23,700 -960 Descending Jacksonville Center
01:21PM 33.8644 -79.0786 215° Southwest 399 459 22,700 -1,020 Descending Jacksonville Center
01:22PM 33.7808 -79.1522 216° Southwest 393 452 21,700 -1,140 Descending Jacksonville Center
01:23PM 33.7139 -79.2125 217° Southwest 387 445 20,500 -1,680 Descending Jacksonville Center
01:24PM 33.6367 -79.2878 219° Southwest 366 421 18,400 -1,980 Descending Jacksonville Center
01:25PM 33.5658 -79.3631 222° Southwest 348 400 16,600 -1,860 Descending Jacksonville Center
01:26PM 33.4928 -79.4358 220° Southwest 343 395 14,700 -1,920 Descending Jacksonville Center
01:27PM 33.4217 -79.5081 220° Southwest 343 395 12,800 -1,860 Descending Jacksonville Center
01:28PM 33.3589 -79.5828 225° Southwest 343 395 11,000 -1,260 Descending Jacksonville Center
01:29PM 33.3086 -79.6542 230° Southwest 311 358 10,300 -480 Descending Jacksonville Center
01:30PM 33.2683 -79.7103 229° Southwest 269 310 10,100 -840 Descending Jacksonville Center
01:31PM 33.2256 -79.7514 219° Southwest 226 260 8,700 -1,320 Descending Jacksonville Center
01:32PM 33.1997 -79.8044 240° Southwest 196 226 7,500 -1,260 Descending Jacksonville Center
01:33PM 33.1781 -79.8575 244° Southwest 183 211 6,200 -1,260 Descending Jacksonville Center
01:34PM 33.1372 -79.8936 217° Southwest 177 204 5,000 -1,200 Descending Jacksonville Center
01:35PM 33.0983 -79.9269 216° Southwest 177 204 3,800 -1,200 Descending Jacksonville Center